sensor_id;sensor_type;location;lat;lon;timestamp;P1;durP1;ratioP1;P2;durP2;ratioP2
26578;SDS011;14227;47.674;19.320;2023-04-24T00:00:15;27.55;;;19.10;;
26578;SDS011;14227;47.674;19.320;2023-04-24T00:02:42;27.95;;;19.95;;
26578;SDS011;14227;47.674;19.320;2023-04-24T00:05:12;26.15;;;19.63;;
26578;SDS011;14227;47.674;19.320;2023-04-24T00:07:39;27.90;;;19.13;;
26578;SDS011;14227;47.674;19.320;2023-04-24T00:10:09;23.80;;;19.20;;
26578;SDS011;14227;47.674;19.320;2023-04-24T00:12:35;27.85;;;19.17;;
26578;SDS011;14227;47.674;19.320;2023-04-24T00:15:01;28.25;;;17.58;;
26578;SDS011;14227;47.674;19.320;2023-04-24T00:17:28;23.80;;;17.50;;
26578;SDS011;14227;47.674;19.320;2023-04-24T00:19:53;29.25;;;17.58;;
26578;SDS011;14227;47.674;19.320;2023-04-24T00:22:23;24.05;;;18.05;;
26578;SDS011;14227;47.674;19.320;2023-04-24T00:24:50;20.75;;;15.43;;
26578;SDS011;14227;47.674;19.320;2023-04-24T00:27:15;26.38;;;17.05;;
26578;SDS011;14227;47.674;19.320;2023-04-24T00:29:41;28.90;;;18.92;;
26578;SDS011;14227;47.674;19.320;2023-04-24T00:32:07;26.30;;;17.98;;
26578;SDS011;14227;47.674;19.320;2023-04-24T00:34:33;24.88;;;17.35;;
26578;SDS011;14227;47.674;19.320;2023-04-24T00:36:58;25.02;;;18.00;;
26578;SDS011;14227;47.674;19.320;2023-04-24T00:39:24;23.05;;;17.02;;
26578;SDS011;14227;47.674;19.320;2023-04-24T00:41:50;24.20;;;17.52;;
26578;SDS011;14227;47.674;19.320;2023-04-24T00:44:16;22.60;;;16.33;;
26578;SDS011;14227;47.674;19.320;2023-04-24T00:46:42;20.13;;;15.55;;
26578;SDS011;14227;47.674;19.320;2023-04-24T00:49:08;23.58;;;16.33;;
26578;SDS011;14227;47.674;19.320;2023-04-24T00:51:33;23.05;;;15.40;;
26578;SDS011;14227;47.674;19.320;2023-04-24T00:54:00;24.02;;;16.88;;
26578;SDS011;14227;47.674;19.320;2023-04-24T00:56:26;23.10;;;16.52;;
26578;SDS011;14227;47.674;19.320;2023-04-24T00:58:52;26.70;;;17.38;;
26578;SDS011;14227;47.674;19.320;2023-04-24T01:01:21;21.80;;;15.90;;
26578;SDS011;14227;47.674;19.320;2023-04-24T01:03:48;27.38;;;16.25;;
26578;SDS011;14227;47.674;19.320;2023-04-24T01:06:15;24.77;;;15.27;;
26578;SDS011;14227;47.674;19.320;2023-04-24T01:08:43;22.73;;;16.05;;
26578;SDS011;14227;47.674;19.320;2023-04-24T01:11:10;29.42;;;16.90;;
26578;SDS011;14227;47.674;19.320;2023-04-24T01:13:36;20.65;;;15.63;;
26578;SDS011;14227;47.674;19.320;2023-04-24T01:16:01;23.15;;;15.85;;
26578;SDS011;14227;47.674;19.320;2023-04-24T01:18:27;20.00;;;13.88;;
26578;SDS011;14227;47.674;19.320;2023-04-24T01:20:54;25.35;;;16.38;;
26578;SDS011;14227;47.674;19.320;2023-04-24T01:23:23;23.95;;;14.75;;
26578;SDS011;14227;47.674;19.320;2023-04-24T01:25:49;21.33;;;13.52;;
26578;SDS011;14227;47.674;19.320;2023-04-24T01:28:15;29.80;;;14.95;;
26578;SDS011;14227;47.674;19.320;2023-04-24T01:30:42;24.77;;;15.50;;
26578;SDS011;14227;47.674;19.320;2023-04-24T01:33:08;17.98;;;13.13;;
26578;SDS011;14227;47.674;19.320;2023-04-24T01:35:34;18.67;;;13.02;;
26578;SDS011;14227;47.674;19.320;2023-04-24T01:38:02;22.42;;;14.50;;
26578;SDS011;14227;47.674;19.320;2023-04-24T01:40:28;24.00;;;15.57;;
26578;SDS011;14227;47.674;19.320;2023-04-24T01:42:53;20.05;;;14.25;;
26578;SDS011;14227;47.674;19.320;2023-04-24T01:45:19;21.02;;;14.90;;
26578;SDS011;14227;47.674;19.320;2023-04-24T01:47:45;19.35;;;14.13;;
26578;SDS011;14227;47.674;19.320;2023-04-24T01:50:11;16.98;;;13.40;;
26578;SDS011;14227;47.674;19.320;2023-04-24T01:52:37;20.65;;;14.20;;
26578;SDS011;14227;47.674;19.320;2023-04-24T01:55:03;18.67;;;14.20;;
26578;SDS011;14227;47.674;19.320;2023-04-24T01:57:33;18.98;;;13.27;;
26578;SDS011;14227;47.674;19.320;2023-04-24T01:59:59;19.20;;;14.70;;
26578;SDS011;14227;47.674;19.320;2023-04-24T02:02:24;17.92;;;14.70;;
26578;SDS011;14227;47.674;19.320;2023-04-24T02:04:52;22.13;;;14.10;;
26578;SDS011;14227;47.674;19.320;2023-04-24T02:07:19;22.60;;;13.63;;
26578;SDS011;14227;47.674;19.320;2023-04-24T02:09:45;19.10;;;13.90;;
26578;SDS011;14227;47.674;19.320;2023-04-24T02:12:11;17.40;;;14.45;;
26578;SDS011;14227;47.674;19.320;2023-04-24T02:14:37;20.63;;;13.27;;
26578;SDS011;14227;47.674;19.320;2023-04-24T02:17:02;19.45;;;13.20;;
26578;SDS011;14227;47.674;19.320;2023-04-24T02:19:28;19.80;;;12.88;;
26578;SDS011;14227;47.674;19.320;2023-04-24T02:21:54;18.02;;;12.98;;
26578;SDS011;14227;47.674;19.320;2023-04-24T02:24:19;18.17;;;13.80;;
26578;SDS011;14227;47.674;19.320;2023-04-24T02:26:45;21.25;;;14.18;;
26578;SDS011;14227;47.674;19.320;2023-04-24T02:29:11;18.65;;;13.93;;
26578;SDS011;14227;47.674;19.320;2023-04-24T02:31:36;17.73;;;13.48;;
26578;SDS011;14227;47.674;19.320;2023-04-24T02:34:02;20.80;;;14.07;;
26578;SDS011;14227;47.674;19.320;2023-04-24T02:36:28;20.85;;;14.35;;
26578;SDS011;14227;47.674;19.320;2023-04-24T02:38:54;23.20;;;15.77;;
26578;SDS011;14227;47.674;19.320;2023-04-24T02:41:19;23.13;;;14.82;;
26578;SDS011;14227;47.674;19.320;2023-04-24T02:43:45;21.17;;;14.90;;
26578;SDS011;14227;47.674;19.320;2023-04-24T02:46:11;28.83;;;16.35;;
26578;SDS011;14227;47.674;19.320;2023-04-24T02:48:36;20.70;;;15.35;;
26578;SDS011;14227;47.674;19.320;2023-04-24T02:51:02;20.55;;;12.75;;
26578;SDS011;14227;47.674;19.320;2023-04-24T02:53:28;24.38;;;16.73;;
26578;SDS011;14227;47.674;19.320;2023-04-24T02:55:55;38.33;;;18.70;;
26578;SDS011;14227;47.674;19.320;2023-04-24T02:58:24;28.48;;;20.08;;
26578;SDS011;14227;47.674;19.320;2023-04-24T03:00:53;29.65;;;22.25;;
26578;SDS011;14227;47.674;19.320;2023-04-24T03:03:20;34.00;;;22.15;;
26578;SDS011;14227;47.674;19.320;2023-04-24T03:05:46;34.08;;;23.88;;
26578;SDS011;14227;47.674;19.320;2023-04-24T03:08:12;52.63;;;26.80;;
26578;SDS011;14227;47.674;19.320;2023-04-24T03:10:39;46.03;;;28.98;;
26578;SDS011;14227;47.674;19.320;2023-04-24T03:13:05;45.50;;;28.27;;
26578;SDS011;14227;47.674;19.320;2023-04-24T03:15:31;35.92;;;27.35;;
26578;SDS011;14227;47.674;19.320;2023-04-24T03:17:56;38.53;;;27.70;;
26578;SDS011;14227;47.674;19.320;2023-04-24T03:20:22;37.03;;;26.20;;
26578;SDS011;14227;47.674;19.320;2023-04-24T03:22:48;32.40;;;24.17;;
26578;SDS011;14227;47.674;19.320;2023-04-24T03:25:14;36.35;;;26.45;;
26578;SDS011;14227;47.674;19.320;2023-04-24T03:27:40;36.60;;;27.30;;
26578;SDS011;14227;47.674;19.320;2023-04-24T03:30:06;45.17;;;31.23;;
26578;SDS011;14227;47.674;19.320;2023-04-24T03:32:33;46.55;;;32.17;;
26578;SDS011;14227;47.674;19.320;2023-04-24T03:34:58;41.95;;;30.35;;
26578;SDS011;14227;47.674;19.320;2023-04-24T03:37:24;45.85;;;31.13;;
26578;SDS011;14227;47.674;19.320;2023-04-24T03:39:51;37.50;;;28.63;;
26578;SDS011;14227;47.674;19.320;2023-04-24T03:42:17;38.92;;;28.67;;
26578;SDS011;14227;47.674;19.320;2023-04-24T03:44:42;39.53;;;27.42;;
26578;SDS011;14227;47.674;19.320;2023-04-24T03:47:08;37.47;;;28.52;;
26578;SDS011;14227;47.674;19.320;2023-04-24T03:49:34;38.78;;;28.10;;
26578;SDS011;14227;47.674;19.320;2023-04-24T03:51:59;39.10;;;28.42;;
26578;SDS011;14227;47.674;19.320;2023-04-24T03:54:25;39.53;;;26.80;;
26578;SDS011;14227;47.674;19.320;2023-04-24T03:56:51;43.30;;;29.45;;
26578;SDS011;14227;47.674;19.320;2023-04-24T03:59:16;46.80;;;31.98;;
26578;SDS011;14227;47.674;19.320;2023-04-24T04:01:42;41.28;;;28.80;;
26578;SDS011;14227;47.674;19.320;2023-04-24T04:04:08;46.22;;;32.03;;
26578;SDS011;14227;47.674;19.320;2023-04-24T04:06:33;40.95;;;28.38;;
26578;SDS011;14227;47.674;19.320;2023-04-24T04:09:01;39.35;;;27.98;;
26578;SDS011;14227;47.674;19.320;2023-04-24T04:11:28;38.95;;;27.13;;
26578;SDS011;14227;47.674;19.320;2023-04-24T04:13:53;31.75;;;23.40;;
26578;SDS011;14227;47.674;19.320;2023-04-24T04:16:19;41.90;;;27.35;;
26578;SDS011;14227;47.674;19.320;2023-04-24T04:18:45;38.88;;;26.02;;
26578;SDS011;14227;47.674;19.320;2023-04-24T04:21:11;42.35;;;27.10;;
26578;SDS011;14227;47.674;19.320;2023-04-24T04:23:37;40.17;;;27.33;;
26578;SDS011;14227;47.674;19.320;2023-04-24T04:26:03;35.65;;;25.45;;
26578;SDS011;14227;47.674;19.320;2023-04-24T04:28:29;40.75;;;28.60;;
26578;SDS011;14227;47.674;19.320;2023-04-24T04:30:58;43.38;;;29.73;;
26578;SDS011;14227;47.674;19.320;2023-04-24T04:33:24;41.05;;;28.67;;
26578;SDS011;14227;47.674;19.320;2023-04-24T04:35:50;36.42;;;26.27;;
26578;SDS011;14227;47.674;19.320;2023-04-24T04:38:18;38.25;;;27.58;;
26578;SDS011;14227;47.674;19.320;2023-04-24T04:40:45;34.30;;;26.25;;
26578;SDS011;14227;47.674;19.320;2023-04-24T04:43:11;33.60;;;23.92;;
26578;SDS011;14227;47.674;19.320;2023-04-24T04:45:38;35.35;;;25.95;;
26578;SDS011;14227;47.674;19.320;2023-04-24T04:48:06;37.17;;;24.75;;
26578;SDS011;14227;47.674;19.320;2023-04-24T04:50:34;35.53;;;25.60;;
26578;SDS011;14227;47.674;19.320;2023-04-24T04:53:02;35.50;;;23.60;;
26578;SDS011;14227;47.674;19.320;2023-04-24T04:55:28;33.72;;;23.98;;
26578;SDS011;14227;47.674;19.320;2023-04-24T04:57:54;30.98;;;22.38;;
26578;SDS011;14227;47.674;19.320;2023-04-24T05:00:21;37.63;;;25.58;;
26578;SDS011;14227;47.674;19.320;2023-04-24T05:02:47;35.00;;;23.70;;
26578;SDS011;14227;47.674;19.320;2023-04-24T05:05:12;33.55;;;23.17;;
26578;SDS011;14227;47.674;19.320;2023-04-24T05:07:38;31.65;;;21.73;;
26578;SDS011;14227;47.674;19.320;2023-04-24T05:10:06;32.08;;;22.25;;
26578;SDS011;14227;47.674;19.320;2023-04-24T05:12:32;32.35;;;22.88;;
26578;SDS011;14227;47.674;19.320;2023-04-24T05:14:58;30.58;;;21.95;;
26578;SDS011;14227;47.674;19.320;2023-04-24T05:17:23;32.67;;;22.85;;
26578;SDS011;14227;47.674;19.320;2023-04-24T05:19:49;33.78;;;22.73;;
26578;SDS011;14227;47.674;19.320;2023-04-24T05:22:16;33.70;;;24.23;;
26578;SDS011;14227;47.674;19.320;2023-04-24T05:24:43;32.50;;;23.83;;
26578;SDS011;14227;47.674;19.320;2023-04-24T05:27:09;30.92;;;22.60;;
26578;SDS011;14227;47.674;19.320;2023-04-24T05:29:35;28.75;;;22.50;;
26578;SDS011;14227;47.674;19.320;2023-04-24T05:32:01;28.73;;;21.60;;
26578;SDS011;14227;47.674;19.320;2023-04-24T05:34:27;32.95;;;23.25;;
26578;SDS011;14227;47.674;19.320;2023-04-24T05:36:52;33.20;;;20.35;;
26578;SDS011;14227;47.674;19.320;2023-04-24T05:39:18;34.10;;;22.08;;
26578;SDS011;14227;47.674;19.320;2023-04-24T05:41:44;30.83;;;21.65;;
26578;SDS011;14227;47.674;19.320;2023-04-24T05:44:10;26.67;;;20.77;;
26578;SDS011;14227;47.674;19.320;2023-04-24T05:46:36;25.05;;;20.42;;
26578;SDS011;14227;47.674;19.320;2023-04-24T05:49:02;31.08;;;20.38;;
26578;SDS011;14227;47.674;19.320;2023-04-24T05:51:28;27.70;;;20.90;;
26578;SDS011;14227;47.674;19.320;2023-04-24T05:53:54;28.23;;;20.98;;
26578;SDS011;14227;47.674;19.320;2023-04-24T05:56:19;33.22;;;20.85;;
26578;SDS011;14227;47.674;19.320;2023-04-24T05:58:45;24.67;;;19.45;;
26578;SDS011;14227;47.674;19.320;2023-04-24T06:01:11;25.55;;;18.77;;
26578;SDS011;14227;47.674;19.320;2023-04-24T06:03:39;27.30;;;19.55;;
26578;SDS011;14227;47.674;19.320;2023-04-24T06:06:06;28.45;;;19.92;;
26578;SDS011;14227;47.674;19.320;2023-04-24T06:08:32;28.70;;;20.88;;
26578;SDS011;14227;47.674;19.320;2023-04-24T06:10:58;32.42;;;19.02;;
26578;SDS011;14227;47.674;19.320;2023-04-24T06:13:23;23.10;;;18.35;;
26578;SDS011;14227;47.674;19.320;2023-04-24T06:15:49;25.25;;;18.60;;
26578;SDS011;14227;47.674;19.320;2023-04-24T06:18:15;33.38;;;21.02;;
26578;SDS011;14227;47.674;19.320;2023-04-24T06:20:41;26.05;;;18.95;;
26578;SDS011;14227;47.674;19.320;2023-04-24T06:23:07;26.65;;;21.73;;
26578;SDS011;14227;47.674;19.320;2023-04-24T06:25:33;25.95;;;20.85;;
26578;SDS011;14227;47.674;19.320;2023-04-24T06:27:59;27.90;;;18.48;;
26578;SDS011;14227;47.674;19.320;2023-04-24T06:30:25;27.40;;;20.75;;
26578;SDS011;14227;47.674;19.320;2023-04-24T06:32:52;29.45;;;20.13;;
26578;SDS011;14227;47.674;19.320;2023-04-24T06:35:18;26.98;;;20.48;;
26578;SDS011;14227;47.674;19.320;2023-04-24T06:37:43;26.60;;;19.08;;
26578;SDS011;14227;47.674;19.320;2023-04-24T06:40:09;28.42;;;21.60;;
26578;SDS011;14227;47.674;19.320;2023-04-24T06:42:35;27.38;;;19.60;;
26578;SDS011;14227;47.674;19.320;2023-04-24T06:45:01;28.10;;;21.52;;
26578;SDS011;14227;47.674;19.320;2023-04-24T06:47:27;29.17;;;21.88;;
26578;SDS011;14227;47.674;19.320;2023-04-24T06:49:53;24.75;;;19.77;;
26578;SDS011;14227;47.674;19.320;2023-04-24T06:52:20;31.42;;;22.77;;
26578;SDS011;14227;47.674;19.320;2023-04-24T06:54:45;34.38;;;23.88;;
26578;SDS011;14227;47.674;19.320;2023-04-24T06:57:11;28.50;;;20.92;;
26578;SDS011;14227;47.674;19.320;2023-04-24T06:59:37;26.30;;;22.55;;
26578;SDS011;14227;47.674;19.320;2023-04-24T07:02:03;27.67;;;19.95;;
26578;SDS011;14227;47.674;19.320;2023-04-24T07:04:29;24.50;;;19.30;;
26578;SDS011;14227;47.674;19.320;2023-04-24T07:06:55;23.52;;;18.73;;
26578;SDS011;14227;47.674;19.320;2023-04-24T07:09:23;30.83;;;20.20;;
26578;SDS011;14227;47.674;19.320;2023-04-24T07:11:51;27.80;;;20.08;;
26578;SDS011;14227;47.674;19.320;2023-04-24T07:14:17;25.20;;;19.42;;
26578;SDS011;14227;47.674;19.320;2023-04-24T07:16:43;29.15;;;20.65;;
26578;SDS011;14227;47.674;19.320;2023-04-24T07:19:10;28.73;;;20.85;;
26578;SDS011;14227;47.674;19.320;2023-04-24T07:21:37;30.85;;;22.65;;
26578;SDS011;14227;47.674;19.320;2023-04-24T07:24:03;37.22;;;24.17;;
26578;SDS011;14227;47.674;19.320;2023-04-24T07:26:29;30.90;;;24.35;;
26578;SDS011;14227;47.674;19.320;2023-04-24T07:28:55;31.08;;;23.80;;
26578;SDS011;14227;47.674;19.320;2023-04-24T07:31:21;31.05;;;22.50;;
26578;SDS011;14227;47.674;19.320;2023-04-24T07:33:47;26.00;;;22.30;;
26578;SDS011;14227;47.674;19.320;2023-04-24T07:36:13;31.73;;;23.30;;
26578;SDS011;14227;47.674;19.320;2023-04-24T07:38:43;31.02;;;25.00;;
26578;SDS011;14227;47.674;19.320;2023-04-24T07:41:15;34.30;;;25.08;;
26578;SDS011;14227;47.674;19.320;2023-04-24T07:43:41;35.90;;;24.95;;
26578;SDS011;14227;47.674;19.320;2023-04-24T07:46:07;28.67;;;22.00;;
26578;SDS011;14227;47.674;19.320;2023-04-24T07:48:33;29.30;;;21.73;;
26578;SDS011;14227;47.674;19.320;2023-04-24T07:51:00;29.25;;;22.50;;
26578;SDS011;14227;47.674;19.320;2023-04-24T07:53:25;31.40;;;22.48;;
26578;SDS011;14227;47.674;19.320;2023-04-24T07:55:51;32.80;;;25.25;;
26578;SDS011;14227;47.674;19.320;2023-04-24T07:58:17;32.55;;;22.63;;
26578;SDS011;14227;47.674;19.320;2023-04-24T08:00:42;28.67;;;24.13;;
26578;SDS011;14227;47.674;19.320;2023-04-24T08:03:08;30.83;;;21.70;;
26578;SDS011;14227;47.674;19.320;2023-04-24T08:05:34;23.23;;;20.10;;
26578;SDS011;14227;47.674;19.320;2023-04-24T08:07:59;24.60;;;19.23;;
26578;SDS011;14227;47.674;19.320;2023-04-24T08:10:25;24.77;;;21.23;;
26578;SDS011;14227;47.674;19.320;2023-04-24T08:12:51;23.52;;;18.33;;
26578;SDS011;14227;47.674;19.320;2023-04-24T08:15:17;22.48;;;17.38;;
26578;SDS011;14227;47.674;19.320;2023-04-24T08:17:43;21.55;;;17.35;;
26578;SDS011;14227;47.674;19.320;2023-04-24T08:20:09;22.48;;;15.95;;
26578;SDS011;14227;47.674;19.320;2023-04-24T08:22:41;37.97;;;16.05;;
26578;SDS011;14227;47.674;19.320;2023-04-24T08:25:08;19.20;;;13.90;;
26578;SDS011;14227;47.674;19.320;2023-04-24T08:27:35;20.08;;;14.73;;
26578;SDS011;14227;47.674;19.320;2023-04-24T08:30:02;25.15;;;14.68;;
26578;SDS011;14227;47.674;19.320;2023-04-24T08:32:28;19.35;;;12.95;;
26578;SDS011;14227;47.674;19.320;2023-04-24T08:34:57;23.40;;;12.60;;
26578;SDS011;14227;47.674;19.320;2023-04-24T08:37:24;15.75;;;11.77;;
26578;SDS011;14227;47.674;19.320;2023-04-24T08:39:50;22.42;;;13.85;;
26578;SDS011;14227;47.674;19.320;2023-04-24T08:42:17;15.30;;;11.95;;
26578;SDS011;14227;47.674;19.320;2023-04-24T08:44:43;16.95;;;11.90;;
26578;SDS011;14227;47.674;19.320;2023-04-24T08:47:10;13.75;;;11.82;;
26578;SDS011;14227;47.674;19.320;2023-04-24T08:49:37;24.65;;;12.48;;
26578;SDS011;14227;47.674;19.320;2023-04-24T08:52:04;16.67;;;12.60;;
26578;SDS011;14227;47.674;19.320;2023-04-24T08:54:31;15.23;;;12.00;;
26578;SDS011;14227;47.674;19.320;2023-04-24T08:56:59;14.43;;;11.93;;
26578;SDS011;14227;47.674;19.320;2023-04-24T08:59:31;14.82;;;11.95;;
26578;SDS011;14227;47.674;19.320;2023-04-24T09:01:59;16.65;;;11.70;;
26578;SDS011;14227;47.674;19.320;2023-04-24T09:04:26;20.20;;;11.35;;
26578;SDS011;14227;47.674;19.320;2023-04-24T09:06:55;16.35;;;11.82;;
26578;SDS011;14227;47.674;19.320;2023-04-24T09:09:22;13.25;;;10.63;;
26578;SDS011;14227;47.674;19.320;2023-04-24T09:11:49;16.60;;;10.45;;
26578;SDS011;14227;47.674;19.320;2023-04-24T09:14:16;16.73;;;10.70;;
26578;SDS011;14227;47.674;19.320;2023-04-24T09:16:42;17.52;;;10.85;;
26578;SDS011;14227;47.674;19.320;2023-04-24T09:19:08;15.20;;;10.30;;
26578;SDS011;14227;47.674;19.320;2023-04-24T09:21:34;12.73;;;9.73;;
26578;SDS011;14227;47.674;19.320;2023-04-24T09:24:01;11.55;;;9.60;;
26578;SDS011;14227;47.674;19.320;2023-04-24T09:26:34;13.25;;;10.55;;
26578;SDS011;14227;47.674;19.320;2023-04-24T09:29:01;12.80;;;10.65;;
26578;SDS011;14227;47.674;19.320;2023-04-24T09:31:28;16.63;;;10.70;;
26578;SDS011;14227;47.674;19.320;2023-04-24T09:33:56;14.73;;;9.63;;
26578;SDS011;14227;47.674;19.320;2023-04-24T09:36:38;13.85;;;9.77;;
26578;SDS011;14227;47.674;19.320;2023-04-24T09:39:09;12.00;;;9.95;;
26578;SDS011;14227;47.674;19.320;2023-04-24T09:41:47;17.38;;;10.73;;
26578;SDS011;14227;47.674;19.320;2023-04-24T09:44:18;16.55;;;10.38;;
26578;SDS011;14227;47.674;19.320;2023-04-24T09:49:22;13.93;;;10.45;;
26578;SDS011;14227;47.674;19.320;2023-04-24T09:51:49;14.18;;;10.27;;
26578;SDS011;14227;47.674;19.320;2023-04-24T09:54:16;14.02;;;9.90;;
26578;SDS011;14227;47.674;19.320;2023-04-24T09:56:45;12.95;;;10.45;;
26578;SDS011;14227;47.674;19.320;2023-04-24T09:59:13;14.68;;;10.90;;
26578;SDS011;14227;47.674;19.320;2023-04-24T10:01:40;17.58;;;11.40;;
26578;SDS011;14227;47.674;19.320;2023-04-24T10:04:24;15.98;;;10.82;;
26578;SDS011;14227;47.674;19.320;2023-04-24T10:06:52;14.10;;;11.25;;
26578;SDS011;14227;47.674;19.320;2023-04-24T10:09:19;13.73;;;11.55;;
26578;SDS011;14227;47.674;19.320;2023-04-24T10:11:48;16.17;;;10.48;;
26578;SDS011;14227;47.674;19.320;2023-04-24T10:14:15;16.00;;;10.90;;
26578;SDS011;14227;47.674;19.320;2023-04-24T10:16:49;11.90;;;10.57;;
26578;SDS011;14227;47.674;19.320;2023-04-24T10:19:18;14.63;;;9.68;;
26578;SDS011;14227;47.674;19.320;2023-04-24T10:21:44;10.43;;;9.30;;
26578;SDS011;14227;47.674;19.320;2023-04-24T10:24:15;12.60;;;9.75;;
26578;SDS011;14227;47.674;19.320;2023-04-24T10:26:43;11.52;;;9.10;;
26578;SDS011;14227;47.674;19.320;2023-04-24T10:29:11;15.48;;;9.50;;
26578;SDS011;14227;47.674;19.320;2023-04-24T10:31:38;13.80;;;8.95;;
26578;SDS011;14227;47.674;19.320;2023-04-24T10:34:05;11.98;;;8.88;;
26578;SDS011;14227;47.674;19.320;2023-04-24T10:36:32;14.48;;;8.98;;
26578;SDS011;14227;47.674;19.320;2023-04-24T10:39:03;12.60;;;9.20;;
26578;SDS011;14227;47.674;19.320;2023-04-24T10:41:33;10.73;;;7.07;;
26578;SDS011;14227;47.674;19.320;2023-04-24T10:44:09;9.88;;;4.45;;
26578;SDS011;14227;47.674;19.320;2023-04-24T10:46:37;10.00;;;4.93;;
26578;SDS011;14227;47.674;19.320;2023-04-24T10:49:07;6.75;;;4.70;;
26578;SDS011;14227;47.674;19.320;2023-04-24T10:51:49;9.55;;;5.25;;
26578;SDS011;14227;47.674;19.320;2023-04-24T11:02:37;9.57;;;5.55;;
26578;SDS011;14227;47.674;19.320;2023-04-24T11:05:05;8.60;;;4.60;;
26578;SDS011;14227;47.674;19.320;2023-04-24T11:10:37;9.75;;;4.18;;
26578;SDS011;14227;47.674;19.320;2023-04-24T11:13:10;7.93;;;4.75;;
26578;SDS011;14227;47.674;19.320;2023-04-24T11:15:41;7.72;;;4.90;;
26578;SDS011;14227;47.674;19.320;2023-04-24T11:18:12;10.27;;;4.80;;
26578;SDS011;14227;47.674;19.320;2023-04-24T11:20:43;7.65;;;5.28;;
26578;SDS011;14227;47.674;19.320;2023-04-24T11:23:11;8.10;;;4.97;;
26578;SDS011;14227;47.674;19.320;2023-04-24T11:25:38;10.05;;;5.40;;
26578;SDS011;14227;47.674;19.320;2023-04-24T11:28:04;9.60;;;6.25;;
26578;SDS011;14227;47.674;19.320;2023-04-24T11:30:32;9.88;;;5.75;;
26578;SDS011;14227;47.674;19.320;2023-04-24T11:33:04;7.68;;;5.38;;
26578;SDS011;14227;47.674;19.320;2023-04-24T11:35:34;16.58;;;6.03;;
26578;SDS011;14227;47.674;19.320;2023-04-24T11:38:04;10.50;;;5.28;;
26578;SDS011;14227;47.674;19.320;2023-04-24T11:40:30;8.02;;;6.15;;
26578;SDS011;14227;47.674;19.320;2023-04-24T11:42:56;8.27;;;5.50;;
26578;SDS011;14227;47.674;19.320;2023-04-24T11:45:25;16.70;;;5.82;;
26578;SDS011;14227;47.674;19.320;2023-04-24T11:47:55;13.68;;;6.20;;
26578;SDS011;14227;47.674;19.320;2023-04-24T11:50:22;12.35;;;6.22;;
26578;SDS011;14227;47.674;19.320;2023-04-24T11:52:51;10.85;;;6.85;;
26578;SDS011;14227;47.674;19.320;2023-04-24T11:57:46;9.48;;;6.07;;
26578;SDS011;14227;47.674;19.320;2023-04-24T12:02:43;12.95;;;6.65;;
26578;SDS011;14227;47.674;19.320;2023-04-24T12:05:09;10.77;;;7.07;;
26578;SDS011;14227;47.674;19.320;2023-04-24T12:07:48;11.57;;;7.70;;
26578;SDS011;14227;47.674;19.320;2023-04-24T12:10:14;12.73;;;8.00;;
26578;SDS011;14227;47.674;19.320;2023-04-24T12:12:49;11.95;;;6.80;;
26578;SDS011;14227;47.674;19.320;2023-04-24T12:15:16;9.88;;;7.13;;
26578;SDS011;14227;47.674;19.320;2023-04-24T12:17:43;10.23;;;7.03;;
26578;SDS011;14227;47.674;19.320;2023-04-24T12:20:10;8.45;;;6.38;;
26578;SDS011;14227;47.674;19.320;2023-04-24T12:22:50;12.43;;;6.43;;
26578;SDS011;14227;47.674;19.320;2023-04-24T12:25:20;10.50;;;6.60;;
26578;SDS011;14227;47.674;19.320;2023-04-24T12:27:52;9.02;;;6.40;;
26578;SDS011;14227;47.674;19.320;2023-04-24T12:30:19;11.70;;;6.68;;
26578;SDS011;14227;47.674;19.320;2023-04-24T12:32:46;14.48;;;7.22;;
26578;SDS011;14227;47.674;19.320;2023-04-24T12:35:23;11.63;;;7.30;;
26578;SDS011;14227;47.674;19.320;2023-04-24T12:37:52;11.30;;;6.90;;
26578;SDS011;14227;47.674;19.320;2023-04-24T12:40:18;8.18;;;5.93;;
26578;SDS011;14227;47.674;19.320;2023-04-24T12:42:49;7.55;;;5.88;;
26578;SDS011;14227;47.674;19.320;2023-04-24T12:45:16;10.15;;;6.32;;
26578;SDS011;14227;47.674;19.320;2023-04-24T12:47:43;13.75;;;8.77;;
26578;SDS011;14227;47.674;19.320;2023-04-24T12:50:11;13.43;;;10.20;;
26578;SDS011;14227;47.674;19.320;2023-04-24T12:52:38;17.73;;;13.18;;
26578;SDS011;14227;47.674;19.320;2023-04-24T12:55:05;17.17;;;13.75;;
26578;SDS011;14227;47.674;19.320;2023-04-24T12:57:34;15.77;;;13.07;;
26578;SDS011;14227;47.674;19.320;2023-04-24T13:00:02;18.75;;;13.60;;
26578;SDS011;14227;47.674;19.320;2023-04-24T13:02:30;15.63;;;13.88;;
26578;SDS011;14227;47.674;19.320;2023-04-24T13:04:57;19.58;;;14.18;;
26578;SDS011;14227;47.674;19.320;2023-04-24T13:07:23;20.25;;;14.98;;
26578;SDS011;14227;47.674;19.320;2023-04-24T13:09:50;22.77;;;16.70;;
26578;SDS011;14227;47.674;19.320;2023-04-24T13:12:17;15.95;;;12.63;;
26578;SDS011;14227;47.674;19.320;2023-04-24T13:14:43;19.05;;;14.18;;
26578;SDS011;14227;47.674;19.320;2023-04-24T13:17:09;17.55;;;11.93;;
26578;SDS011;14227;47.674;19.320;2023-04-24T13:19:38;13.60;;;9.65;;
26578;SDS011;14227;47.674;19.320;2023-04-24T13:22:05;13.60;;;8.07;;
26578;SDS011;14227;47.674;19.320;2023-04-24T13:24:32;14.48;;;7.35;;
26578;SDS011;14227;47.674;19.320;2023-04-24T13:26:58;12.82;;;6.53;;
26578;SDS011;14227;47.674;19.320;2023-04-24T13:29:25;10.30;;;5.95;;
26578;SDS011;14227;47.674;19.320;2023-04-24T13:31:52;14.10;;;6.05;;
26578;SDS011;14227;47.674;19.320;2023-04-24T13:34:25;10.73;;;5.80;;
26578;SDS011;14227;47.674;19.320;2023-04-24T13:36:52;11.35;;;5.95;;
26578;SDS011;14227;47.674;19.320;2023-04-24T13:39:19;8.27;;;5.95;;
26578;SDS011;14227;47.674;19.320;2023-04-24T13:41:46;13.10;;;7.30;;
26578;SDS011;14227;47.674;19.320;2023-04-24T13:44:13;9.55;;;6.85;;
26578;SDS011;14227;47.674;19.320;2023-04-24T13:46:43;13.88;;;7.32;;
26578;SDS011;14227;47.674;19.320;2023-04-24T13:49:13;16.23;;;7.93;;
26578;SDS011;14227;47.674;19.320;2023-04-24T13:51:39;14.00;;;7.40;;
26578;SDS011;14227;47.674;19.320;2023-04-24T13:54:06;11.70;;;7.88;;
26578;SDS011;14227;47.674;19.320;2023-04-24T13:56:32;16.15;;;8.10;;
26578;SDS011;14227;47.674;19.320;2023-04-24T13:58:57;12.85;;;7.90;;
26578;SDS011;14227;47.674;19.320;2023-04-24T14:01:23;23.27;;;7.60;;
26578;SDS011;14227;47.674;19.320;2023-04-24T14:03:51;22.00;;;11.13;;
26578;SDS011;14227;47.674;19.320;2023-04-24T14:06:18;30.08;;;12.32;;
26578;SDS011;14227;47.674;19.320;2023-04-24T14:18:21;21.55;;;13.18;;
26578;SDS011;14227;47.674;19.320;2023-04-24T14:24:33;19.33;;;11.90;;
26578;SDS011;14227;47.674;19.320;2023-04-24T14:27:00;18.38;;;13.20;;
26578;SDS011;14227;47.674;19.320;2023-04-24T14:30:02;37.88;;;13.95;;
26578;SDS011;14227;47.674;19.320;2023-04-24T14:32:28;24.10;;;12.30;;
26578;SDS011;14227;47.674;19.320;2023-04-24T14:34:56;29.13;;;13.13;;
26578;SDS011;14227;47.674;19.320;2023-04-24T14:37:22;23.42;;;14.40;;
26578;SDS011;14227;47.674;19.320;2023-04-24T14:39:47;46.10;;;14.80;;
26578;SDS011;14227;47.674;19.320;2023-04-24T14:42:13;26.10;;;14.77;;
26578;SDS011;14227;47.674;19.320;2023-04-24T14:44:39;112.75;;;18.75;;